Time;durP1;ratioP1;P1;durP2;ratioP2;P2;SDS_P1;SDS_P2;PMS_P1;PMS_P2;Temp;Humidity;BMP_temperature;BMP_pressure;BME280_temperature;BME280_humidity;BME280_pressure;Samples;Min_cycle;Max_cycle;Signal;HPM_P1;HPM_P2
2022/01/01 00:04:44;;;;;;;37.35;20.05;;;10.90;96.50;;;;;;10049205;28;20121;-65
2022/01/01 00:09:36;;;;;;;33.53;17.60;;;11.00;96.40;;;;;;10047418;28;20028;-67
2022/01/01 00:14:26;;;;;;;28.92;15.48;;;11.10;96.40;;;;;;10016012;28;20030;-67
2022/01/01 00:19:17;;;;;;;23.98;14.80;;;11.10;96.30;;;;;;10045396;28;20036;-65
2022/01/01 00:24:08;;;;;;;20.85;11.25;;;11.20;96.30;;;;;;10046881;28;20028;-64
2022/01/01 00:28:58;;;;;;;29.88;13.65;;;11.20;96.30;;;;;;10043871;28;20388;-64
2022/01/01 00:33:49;;;;;;;30.30;15.05;;;11.20;96.30;;;;;;10044186;28;20485;-64
2022/01/01 00:38:40;;;;;;;27.17;13.40;;;11.20;96.30;;;;;;10039520;28;20045;-65
2022/01/01 00:43:31;;;;;;;23.98;12.73;;;11.10;96.50;;;;;;10040651;28;20030;-65
2022/01/01 00:48:21;;;;;;;21.67;12.57;;;11.10;96.30;;;;;;10047668;28;20397;-66
2022/01/01 00:53:12;;;;;;;27.35;12.95;;;11.10;96.20;;;;;;10046353;28;20038;-66
2022/01/01 00:58:03;;;;;;;27.63;14.52;;;11.00;96.20;;;;;;10045378;28;20160;-69
2022/01/01 01:02:54;;;;;;;17.20;10.80;;;11.00;96.30;;;;;;10051193;28;20026;-64
2022/01/01 01:07:45;;;;;;;21.92;9.93;;;11.10;96.30;;;;;;10050205;28;20094;-64
2022/01/01 01:12:41;;;;;;;17.05;9.25;;;11.10;96.10;;;;;;10040594;28;20342;-64
2022/01/01 01:17:32;;;;;;;15.80;9.15;;;11.10;96.10;;;;;;10055194;28;20064;-64
2022/01/01 01:22:22;;;;;;;19.02;9.45;;;11.10;96.00;;;;;;10047116;28;20181;-66
2022/01/01 01:27:13;;;;;;;13.68;9.27;;;11.20;96.00;;;;;;10050446;28;20524;-67
2022/01/01 01:32:04;;;;;;;14.15;7.80;;;11.20;95.90;;;;;;10016889;28;20059;-65
2022/01/01 01:36:55;;;;;;;12.48;8.88;;;11.20;95.90;;;;;;10046505;28;20045;-64
2022/01/01 01:41:46;;;;;;;12.20;7.65;;;11.20;95.80;;;;;;10047774;28;20611;-64
2022/01/01 01:46:39;;;;;;;14.27;7.75;;;11.20;95.80;;;;;;10047306;28;20026;-64
2022/01/01 01:51:30;;;;;;;18.73;8.98;;;11.10;95.90;;;;;;10049352;28;20083;-65
2022/01/01 01:56:21;;;;;;;13.52;8.55;;;11.20;95.70;;;;;;10029218;28;20109;-64
2022/01/01 02:06:06;;;;;;;17.63;9.93;;;11.20;95.70;;;;;;10045945;28;20034;-65
2022/01/01 02:10:57;;;;;;;12.18;8.75;;;11.20;95.60;;;;;;10051876;28;20427;-65
2022/01/01 02:20:43;;;;;;;21.83;10.68;;;11.10;95.60;;;;;;10048013;28;20026;-64
2022/01/01 02:25:33;;;;;;;13.60;7.63;;;11.10;95.70;;;;;;10047708;28;20064;-65
2022/01/01 02:30:24;;;;;;;12.80;8.32;;;11.00;95.50;;;;;;10031890;28;20040;-64
2022/01/01 02:35:17;;;;;;;14.57;7.35;;;11.00;95.60;;;;;;10048003;28;20050;-65
2022/01/01 02:40:09;;;;;;;17.35;8.43;;;11.00;95.60;;;;;;10045845;28;20124;-65
2022/01/01 02:45:05;;;;;;;12.35;7.20;;;11.10;95.40;;;;;;10050321;28;20040;-65
2022/01/01 02:49:56;;;;;;;13.07;6.43;;;11.10;95.40;;;;;;10045377;28;20049;-65
2022/01/01 02:54:47;;;;;;;11.73;7.10;;;11.00;95.40;;;;;;10031154;28;20061;-65
2022/01/01 02:59:37;;;;;;;9.77;5.93;;;10.90;95.40;;;;;;10046107;28;20057;-65
2022/01/01 03:04:28;;;;;;;13.75;7.03;;;10.90;95.40;;;;;;10043576;28;20087;-66
2022/01/01 03:09:19;;;;;;;13.25;5.43;;;10.90;95.40;;;;;;10050959;28;20033;-66
2022/01/01 03:14:12;;;;;;;10.93;5.95;;;10.90;95.40;;;;;;10043389;28;20045;-66
2022/01/01 03:19:02;;;;;;;10.98;6.35;;;10.80;95.30;;;;;;10047337;28;20409;-66
2022/01/01 03:23:54;;;;;;;12.40;6.45;;;10.60;95.30;;;;;;10046890;28;20026;-65
2022/01/01 03:28:45;;;;;;;11.02;6.05;;;10.40;95.30;;;;;;10043609;28;20432;-66
2022/01/01 03:33:36;;;;;;;15.00;7.82;;;10.40;95.30;;;;;;10042906;28;20038;-65
2022/01/01 03:38:26;;;;;;;15.40;7.97;;;10.30;95.30;;;;;;10042989;28;20025;-65
2022/01/01 03:43:17;;;;;;;12.10;8.25;;;10.20;95.30;;;;;;10047211;28;20144;-65
2022/01/01 03:48:08;;;;;;;37.55;22.33;;;10.10;95.30;;;;;;10043364;28;20033;-67
2022/01/01 03:52:58;;;;;;;33.55;20.35;;;10.00;95.30;;;;;;10048945;28;20052;-66
2022/01/01 03:57:49;;;;;;;27.67;16.27;;;10.00;95.30;;;;;;10042987;28;20068;-65
2022/01/01 04:02:40;;;;;;;16.05;11.57;;;9.90;95.40;;;;;;10044874;28;20427;-65
2022/01/01 04:07:31;;;;;;;15.73;8.77;;;9.80;95.40;;;;;;10044891;28;20089;-65
2022/01/01 04:12:22;;;;;;;11.43;8.02;;;9.80;95.40;;;;;;10045857;28;20073;-64
2022/01/01 04:17:12;;;;;;;10.07;6.45;;;9.70;95.50;;;;;;10042703;28;20080;-67
2022/01/01 04:22:03;;;;;;;10.45;5.30;;;9.60;95.50;;;;;;10045705;28;20131;-65
2022/01/01 04:26:54;;;;;;;10.05;6.22;;;9.60;95.50;;;;;;10043007;28;20028;-65
2022/01/01 04:31:44;;;;;;;11.13;5.70;;;9.50;95.50;;;;;;10043350;28;20121;-66
2022/01/01 04:36:46;;;;;;;12.35;6.93;;;9.50;95.60;;;;;;10053307;28;20182;-66
2022/01/01 04:41:36;;;;;;;13.50;6.88;;;9.40;95.60;;;;;;10054055;28;20113;-65
2022/01/01 04:46:27;;;;;;;11.27;7.10;;;9.30;95.60;;;;;;10051794;28;20583;-65
2022/01/01 04:51:18;;;;;;;14.27;6.10;;;9.30;95.60;;;;;;10048645;28;20409;-64
2022/01/01 04:56:08;;;;;;;13.45;7.13;;;9.20;95.70;;;;;;10037247;28;20394;-67
2022/01/01 05:00:59;;;;;;;13.15;6.43;;;9.20;95.70;;;;;;10050058;28;20059;-65
2022/01/01 05:05:50;;;;;;;14.07;6.00;;;9.30;95.80;;;;;;10033897;28;20033;-66
2022/01/01 05:10:40;;;;;;;16.42;7.30;;;9.40;95.80;;;;;;10052703;28;20030;-66
2022/01/01 05:15:31;;;;;;;10.38;5.30;;;9.40;95.90;;;;;;10051484;28;20041;-65
2022/01/01 05:20:22;;;;;;;12.05;7.03;;;9.40;95.90;;;;;;10048409;28;20029;-66
2022/01/01 05:25:13;;;;;;;9.10;6.35;;;9.40;95.90;;;;;;10048832;28;20407;-66
2022/01/01 05:30:05;;;;;;;8.43;5.00;;;9.50;96.00;;;;;;10046696;28;20536;-66
2022/01/01 05:34:56;;;;;;;9.82;5.70;;;9.50;96.10;;;;;;10050655;28;20049;-66
2022/01/01 05:39:47;;;;;;;8.45;4.78;;;9.60;96.10;;;;;;10050670;28;20092;-66
2022/01/01 05:44:37;;;;;;;9.75;5.50;;;9.50;96.00;;;;;;10046255;28;20033;-67
2022/01/01 05:49:28;;;;;;;10.88;6.00;;;9.60;96.10;;;;;;10047950;28;20021;-66
2022/01/01 05:54:19;;;;;;;10.48;6.15;;;9.60;96.20;;;;;;10046731;28;20049;-67
2022/01/01 05:59:09;;;;;;;10.52;5.68;;;9.60;96.10;;;;;;10046199;28;20500;-67
2022/01/01 06:04:00;;;;;;;11.15;5.20;;;9.50;96.10;;;;;;10061014;28;20120;-66
2022/01/01 06:08:51;;;;;;;9.65;4.95;;;9.50;96.20;;;;;;10047536;28;20029;-66
2022/01/01 06:13:41;;;;;;;9.32;5.72;;;9.50;96.20;;;;;;10047877;28;21048;-65
2022/01/01 06:18:32;;;;;;;11.13;5.82;;;9.60;96.20;;;;;;10046497;28;20487;-66
2022/01/01 06:23:23;;;;;;;10.60;6.07;;;9.70;96.20;;;;;;10030303;28;20405;-65
2022/01/01 06:28:13;;;;;;;11.15;6.32;;;9.70;96.00;;;;;;10045111;28;20041;-64
2022/01/01 06:33:16;;;;;;;9.52;6.60;;;9.70;96.00;;;;;;10049433;28;20072;-65
2022/01/01 06:38:10;;;;;;;13.27;6.75;;;9.80;96.10;;;;;;10041184;28;20045;-66
2022/01/01 06:43:01;;;;;;;12.05;5.80;;;9.80;96.10;;;;;;10042896;28;20041;-66
2022/01/01 06:47:51;;;;;;;10.32;5.95;;;9.80;96.10;;;;;;10047592;28;20040;-66
2022/01/01 06:52:44;;;;;;;12.43;5.97;;;9.80;96.20;;;;;;10043344;28;20034;-67
2022/01/01 06:57:34;;;;;;;11.05;5.97;;;9.90;96.30;;;;;;10049278;28;20053;-65
2022/01/01 07:02:25;;;;;;;11.45;5.93;;;9.90;96.20;;;;;;10047438;28;20604;-64
2022/01/01 07:07:15;;;;;;;11.52;5.60;;;9.80;96.20;;;;;;10046073;28;20288;-65
2022/01/01 07:12:07;;;;;;;11.88;6.57;;;9.80;96.20;;;;;;10045573;28;20068;-66
2022/01/01 07:16:57;;;;;;;9.90;5.20;;;9.80;96.10;;;;;;10045501;28;20149;-67
2022/01/01 07:21:48;;;;;;;12.57;6.45;;;9.70;96.10;;;;;;10045798;28;20042;-68
2022/01/01 07:26:39;;;;;;;9.75;4.80;;;9.70;96.10;;;;;;10049374;28;20480;-67
2022/01/01 07:31:29;;;;;;;13.43;5.85;;;9.60;96.10;;;;;;10045803;28;20571;-66
2022/01/01 07:36:20;;;;;;;10.82;5.75;;;9.40;96.20;;;;;;10046077;28;20042;-66
2022/01/01 07:41:10;;;;;;;10.02;5.53;;;9.40;96.20;;;;;;10027687;28;20496;-67
2022/01/01 07:46:01;;;;;;;13.93;6.05;;;9.40;96.30;;;;;;10047527;28;20367;-64
2022/01/01 07:50:52;;;;;;;8.93;5.13;;;9.30;96.20;;;;;;10044961;28;20029;-66
2022/01/01 07:55:42;;;;;;;13.85;6.88;;;9.30;96.20;;;;;;10048723;28;20034;-63
2022/01/01 08:00:33;;;;;;;9.52;5.20;;;9.30;96.20;;;;;;10053756;28;20049;-66
2022/01/01 08:05:24;;;;;;;10.48;5.55;;;9.40;96.40;;;;;;10029808;28;20432;-66
2022/01/01 08:10:15;;;;;;;11.57;4.78;;;9.40;96.10;;;;;;10027733;28;20045;-64
2022/01/01 08:15:09;;;;;;;9.88;5.70;;;9.50;96.10;;;;;;10050737;28;20189;-66
2022/01/01 08:20:00;;;;;;;12.10;5.65;;;9.50;96.10;;;;;;10034496;28;20068;-65
2022/01/01 08:24:51;;;;;;;12.25;5.70;;;9.50;96.00;;;;;;10036222;28;20369;-66
2022/01/01 08:29:42;;;;;;;10.25;4.80;;;9.50;96.00;;;;;;10054454;28;20021;-65
2022/01/01 08:34:33;;;;;;;8.98;5.53;;;9.50;96.10;;;;;;10050953;28;20041;-65
2022/01/01 08:39:23;;;;;;;11.82;6.53;;;9.40;96.20;;;;;;10047006;28;20018;-66
2022/01/01 08:44:15;;;;;;;11.55;6.25;;;9.40;96.20;;;;;;10052213;28;20033;-66
2022/01/01 08:49:09;;;;;;;10.75;6.00;;;9.40;96.30;;;;;;10047120;28;20516;-65
2022/01/01 08:54:00;;;;;;;8.75;5.38;;;9.40;96.20;;;;;;10052913;28;20428;-66
2022/01/01 08:58:51;;;;;;;8.10;5.03;;;9.40;96.20;;;;;;10047342;28;20057;-66
2022/01/01 09:03:42;;;;;;;10.38;6.15;;;9.40;96.30;;;;;;10051480;28;20026;-66
2022/01/01 09:08:36;;;;;;;11.77;6.20;;;9.60;96.30;;;;;;10049924;28;20039;-66
2022/01/01 09:13:26;;;;;;;9.98;5.63;;;9.70;96.20;;;;;;10049234;28;20491;-68
2022/01/01 09:18:17;;;;;;;10.80;5.57;;;9.80;96.00;;;;;;10048249;28;20035;-66
2022/01/01 09:23:08;;;;;;;10.68;4.80;;;9.80;96.00;;;;;;10047983;28;20113;-65
2022/01/01 09:27:58;;;;;;;12.02;5.85;;;9.90;96.00;;;;;;10052095;28;20072;-65
2022/01/01 09:32:49;;;;;;;10.95;5.25;;;9.90;96.00;;;;;;10051513;28;20040;-66
2022/01/01 09:37:40;;;;;;;8.93;5.53;;;10.00;96.00;;;;;;10051994;28;20037;-66
2022/01/01 09:42:31;;;;;;;8.32;4.90;;;10.00;95.90;;;;;;10051846;28;20362;-66
2022/01/01 09:47:23;;;;;;;9.48;4.68;;;10.20;95.90;;;;;;10045158;28;20066;-65
2022/01/01 09:52:14;;;;;;;6.88;4.10;;;10.20;95.80;;;;;;10051900;28;20500;-65
2022/01/01 09:57:05;;;;;;;8.32;5.00;;;10.40;95.80;;;;;;10049882;28;20041;-72
2022/01/01 10:01:56;;;;;;;7.13;4.30;;;10.50;95.60;;;;;;10049946;28;20014;-69
2022/01/01 10:07:05;;;;;;;7.28;4.35;;;10.80;95.50;;;;;;10050721;28;20575;-68
2022/01/01 10:11:55;;;;;;;7.68;4.90;;;10.90;95.30;;;;;;10030161;28;20029;-69
2022/01/01 10:16:46;;;;;;;8.88;4.55;;;11.00;95.30;;;;;;10048614;28;20079;-66
2022/01/01 10:21:41;;;;;;;7.10;4.43;;;11.00;95.30;;;;;;10049094;28;20033;-68
2022/01/01 10:32:02;;;;;;;8.63;4.25;;;11.50;95.10;;;;;;10050534;28;20127;-66
2022/01/01 10:36:53;;;;;;;7.97;3.80;;;11.50;95.00;;;;;;10049252;28;20531;-66
2022/01/01 10:41:45;;;;;;;7.47;3.97;;;11.60;95.00;;;;;;10046949;28;20345;-68
2022/01/01 10:46:38;;;;;;;11.80;4.32;;;11.70;94.90;;;;;;10045171;28;20551;-67
2022/01/01 10:51:38;;;;;;;8.20;4.65;;;11.90;94.90;;;;;;10058167;28;20025;-68
2022/01/01 10:56:37;;;;;;;8.70;4.15;;;11.90;94.80;;;;;;10042618;28;20056;-71
2022/01/01 11:01:29;;;;;;;6.40;3.63;;;12.00;94.70;;;;;;10045509;28;20029;-68
2022/01/01 11:06:19;;;;;;;5.75;3.47;;;12.00;94.60;;;;;;10049346;28;20351;-71
2022/01/01 11:11:12;;;;;;;8.80;4.63;;;11.90;94.70;;;;;;10049379;28;20044;-68
2022/01/01 11:16:05;;;;;;;6.20;3.35;;;12.00;94.60;;;;;;10048733;28;20205;-67
2022/01/01 11:20:57;;;;;;;7.28;3.95;;;12.20;94.50;;;;;;10029098;28;20028;-67
2022/01/01 11:25:48;;;;;;;7.72;3.78;;;12.20;94.40;;;;;;10044460;28;20044;-68
2022/01/01 11:30:48;;;;;;;7.68;4.65;;;12.20;94.30;;;;;;10041815;28;20032;-66
2022/01/01 11:35:43;;;;;;;8.40;4.53;;;12.30;94.40;;;;;;10047576;28;20072;-67
2022/01/01 11:40:57;;;;;;;9.57;5.38;;;12.30;94.40;;;;;;10028559;28;20272;-67
2022/01/01 11:45:48;;;;;;;8.63;5.47;;;12.40;94.20;;;;;;10044121;28;20037;-68
2022/01/01 11:50:43;;;;;;;6.63;3.95;;;12.40;94.20;;;;;;10047893;28;20030;-67
2022/01/01 11:55:34;;;;;;;8.30;4.57;;;12.50;94.00;;;;;;10042410;28;20120;-65
2022/01/01 12:00:25;;;;;;;6.43;4.43;;;12.40;94.10;;;;;;10049390;28;20041;-67
2022/01/01 12:05:22;;;;;;;6.20;4.25;;;12.50;94.00;;;;;;10044178;28;20526;-63
2022/01/01 12:10:19;;;;;;;5.47;3.53;;;12.60;93.90;;;;;;10046417;28;20037;-69
2022/01/01 12:15:21;;;;;;;9.15;5.63;;;12.60;93.80;;;;;;10046513;28;20500;-69
2022/01/01 12:20:17;;;;;;;7.70;4.10;;;12.70;93.80;;;;;;10044336;28;20018;-69
2022/01/01 12:25:15;;;;;;;7.68;3.80;;;12.70;93.70;;;;;;10047793;28;20571;-70
2022/01/01 12:30:09;;;;;;;7.10;3.83;;;12.90;93.60;;;;;;10048769;28;20033;-71
2022/01/01 12:35:14;;;;;;;7.22;4.20;;;12.90;93.70;;;;;;10040834;28;20538;-70
2022/01/01 12:40:06;;;;;;;6.00;4.43;;;13.00;93.50;;;;;;10049610;28;20018;-70
2022/01/01 12:45:03;;;;;;;8.80;4.60;;;13.10;93.50;;;;;;10045439;28;20029;-65
2022/01/01 12:49:58;;;;;;;5.50;3.63;;;13.20;93.40;;;;;;10047618;28;20017;-66
2022/01/01 12:54:49;;;;;;;6.45;3.90;;;13.30;93.40;;;;;;10053243;28;20507;-65
2022/01/01 12:59:42;;;;;;;6.32;4.07;;;13.30;93.40;;;;;;10055495;28;20041;-68
2022/01/01 13:04:34;;;;;;;5.53;3.33;;;13.30;93.30;;;;;;10058983;28;20033;-68
2022/01/01 13:09:28;;;;;;;5.38;3.47;;;13.30;93.20;;;;;;10053295;28;20034;-68
2022/01/01 13:14:20;;;;;;;5.90;3.85;;;13.40;93.10;;;;;;10055224;28;20092;-69
2022/01/01 13:19:10;;;;;;;5.55;3.42;;;13.40;93.10;;;;;;10048885;28;20510;-68
2022/01/01 13:24:02;;;;;;;9.02;3.90;;;13.40;93.10;;;;;;10059033;28;20076;-64
2022/01/01 13:28:58;;;;;;;7.82;3.45;;;13.40;93.10;;;;;;10063239;28;20180;-65
2022/01/01 13:33:54;;;;;;;7.25;3.75;;;13.40;93.00;;;;;;10032390;28;20057;-67
2022/01/01 13:38:45;;;;;;;5.60;3.83;;;13.40;93.00;;;;;;10050710;28;20033;-71
2022/01/01 13:43:36;;;;;;;5.60;3.35;;;13.30;93.00;;;;;;10050643;28;20542;-71
2022/01/01 13:48:27;;;;;;;6.30;3.13;;;13.30;92.90;;;;;;10034183;28;20053;-71
2022/01/01 13:53:18;;;;;;;6.43;3.72;;;13.30;92.90;;;;;;10051497;28;20073;-67
2022/01/01 13:58:09;;;;;;;6.75;3.58;;;13.30;92.80;;;;;;10053758;28;20522;-67
2022/01/01 14:03:03;;;;;;;7.85;4.10;;;13.30;92.70;;;;;;10053914;28;20033;-64
2022/01/01 14:08:10;;;;;;;6.85;4.07;;;13.30;92.80;;;;;;10047919;28;20047;-64
2022/01/01 14:13:01;;;;;;;5.75;3.60;;;13.30;92.70;;;;;;10049621;28;20037;-66
2022/01/01 14:18:07;;;;;;;6.57;3.67;;;13.30;92.70;;;;;;10050290;28;20034;-64
2022/01/01 14:22:59;;;;;;;6.90;3.70;;;13.20;92.70;;;;;;10049520;28;20040;-67
2022/01/01 14:27:50;;;;;;;10.95;3.97;;;13.20;92.70;;;;;;10046861;28;20403;-65
2022/01/01 14:32:45;;;;;;;6.00;3.13;;;13.20;92.70;;;;;;10049311;28;20034;-72
2022/01/01 14:37:36;;;;;;;5.47;3.55;;;13.10;92.70;;;;;;10044141;28;20017;-70
2022/01/01 14:42:27;;;;;;;5.90;4.00;;;13.00;92.70;;;;;;10046648;28;20390;-65
2022/01/01 14:47:42;;;;;;;4.32;2.90;;;13.00;92.70;;;;;;10055670;28;20030;-66
2022/01/01 14:52:46;;;;;;;8.77;2.70;;;13.00;92.60;;;;;;10046950;28;20045;-72
2022/01/01 14:57:45;;;;;;;6.68;3.10;;;13.00;92.60;;;;;;10047016;28;20049;-66
2022/01/01 15:02:37;;;;;;;5.68;3.28;;;12.90;92.60;;;;;;10044473;28;20136;-68
2022/01/01 15:07:30;;;;;;;7.78;3.22;;;12.90;92.60;;;;;;10048017;28;20025;-72
2022/01/01 15:12:21;;;;;;;7.55;3.17;;;12.80;92.60;;;;;;10049127;28;20025;-70
2022/01/01 15:17:15;;;;;;;4.97;2.70;;;12.70;92.70;;;;;;10049297;28;20029;-70
2022/01/01 15:22:10;;;;;;;4.43;2.88;;;12.70;92.60;;;;;;10024024;28;20120;-63
2022/01/01 15:27:04;;;;;;;8.80;3.60;;;12.70;92.60;;;;;;10049085;28;20661;-65
2022/01/01 15:37:11;;;;;;;6.07;3.28;;;12.70;92.60;;;;;;10034128;28;20099;-67
2022/01/01 15:42:19;;;;;;;5.13;3.47;;;12.60;92.70;;;;;;10046164;28;20132;-65
2022/01/01 15:47:10;;;;;;;5.43;3.10;;;12.50;92.70;;;;;;10044101;28;20025;-66
2022/01/01 15:52:02;;;;;;;8.52;3.95;;;12.40;92.80;;;;;;10048670;28;20026;-72
2022/01/01 15:57:12;;;;;;;5.85;3.60;;;12.30;92.80;;;;;;10049303;28;20140;-66
2022/01/01 16:02:34;;;;;;;3.63;3.05;;;12.30;92.80;;;;;;10049096;28;20311;-68
2022/01/01 16:07:27;;;;;;;7.63;3.30;;;12.20;92.80;;;;;;10023039;28;20033;-67
2022/01/01 16:12:22;;;;;;;9.82;4.65;;;12.20;92.90;;;;;;10044904;28;20079;-68
2022/01/01 16:17:15;;;;;;;7.77;3.10;;;12.10;92.90;;;;;;10045827;28;20033;-68
2022/01/01 16:22:06;;;;;;;5.68;2.90;;;12.00;92.90;;;;;;10040943;28;20053;-69
2022/01/01 16:26:57;;;;;;;6.90;4.07;;;12.00;92.90;;;;;;10032209;28;20033;-68
2022/01/01 16:31:48;;;;;;;7.60;3.50;;;12.00;92.90;;;;;;10052408;28;20032;-68
2022/01/01 16:36:39;;;;;;;6.50;4.20;;;11.90;93.00;;;;;;10055792;28;20037;-67
2022/01/01 16:41:55;;;;;;;10.60;5.55;;;11.90;93.00;;;;;;10057601;28;20112;-68
2022/01/01 16:46:56;;;;;;;9.18;5.15;;;11.80;93.10;;;;;;10035058;28;20036;-68
2022/01/01 16:51:51;;;;;;;9.98;6.25;;;11.80;93.10;;;;;;10038520;28;20574;-68
2022/01/01 16:56:48;;;;;;;11.60;5.85;;;11.80;93.20;;;;;;10040679;28;20080;-67
2022/01/01 17:01:41;;;;;;;11.45;5.88;;;11.70;93.30;;;;;;10054648;28;20041;-65
2022/01/01 17:06:41;;;;;;;12.73;6.55;;;11.70;93.40;;;;;;10060040;28;20064;-65
2022/01/01 17:11:33;;;;;;;11.35;7.07;;;11.70;93.50;;;;;;10052881;28;20026;-66
2022/01/01 17:16:39;;;;;;;14.55;6.65;;;11.70;93.50;;;;;;10052512;28;20037;-66
2022/01/01 17:21:39;;;;;;;14.43;8.65;;;11.70;93.80;;;;;;10053715;28;20101;-69
2022/01/01 17:26:33;;;;;;;11.80;7.25;;;11.60;94.00;;;;;;10054673;28;20037;-66
2022/01/01 17:31:26;;;;;;;13.70;7.00;;;11.60;93.70;;;;;;10053998;28;20041;-68
2022/01/01 17:36:39;;;;;;;16.73;8.40;;;11.60;93.90;;;;;;10053038;28;20053;-67
2022/01/01 17:41:31;;;;;;;13.43;7.43;;;11.50;93.80;;;;;;10056398;28;20025;-67
2022/01/01 17:46:23;;;;;;;15.05;8.23;;;11.40;93.90;;;;;;10059854;28;20112;-66
2022/01/01 17:51:16;;;;;;;15.63;7.35;;;11.30;93.90;;;;;;10063026;28;20048;-72
2022/01/01 17:56:08;;;;;;;14.13;8.15;;;11.30;94.00;;;;;;10050340;28;20459;-65
2022/01/01 18:01:00;;;;;;;13.90;7.30;;;11.20;94.10;;;;;;10052933;28;20223;-74
2022/01/01 18:05:51;;;;;;;13.43;7.68;;;11.10;94.10;;;;;;10050772;28;20029;-69
2022/01/01 18:10:43;;;;;;;15.55;7.82;;;11.10;94.20;;;;;;10050282;28;20033;-72
2022/01/01 18:15:35;;;;;;;21.13;10.10;;;11.00;94.30;;;;;;10048829;28;20507;-69
2022/01/01 18:20:27;;;;;;;17.42;10.35;;;11.00;94.40;;;;;;10051741;28;20028;-72
2022/01/01 18:25:27;;;;;;;16.15;8.77;;;10.90;94.40;;;;;;10048925;28;20107;-72
2022/01/01 18:30:18;;;;;;;21.83;8.98;;;10.90;94.50;;;;;;10046192;28;20025;-71
2022/01/01 18:35:09;;;;;;;16.63;8.73;;;10.90;94.50;;;;;;10052002;28;20033;-67
2022/01/01 18:40:00;;;;;;;15.68;9.02;;;10.80;94.60;;;;;;10047616;28;20103;-69
2022/01/01 18:44:51;;;;;;;20.10;8.57;;;10.80;94.70;;;;;;10051291;28;20462;-71
2022/01/01 18:49:43;;;;;;;18.25;9.43;;;10.70;94.80;;;;;;10049319;28;20025;-64
2022/01/01 18:54:49;;;;;;;16.13;9.40;;;10.70;94.90;;;;;;10049870;28;20077;-66
2022/01/01 18:59:47;;;;;;;18.90;10.45;;;10.70;94.90;;;;;;10048044;28;20135;-65
2022/01/01 19:04:52;;;;;;;19.98;10.05;;;10.60;95.00;;;;;;10048043;28;20490;-67
2022/01/01 19:09:49;;;;;;;16.90;9.60;;;10.50;95.10;;;;;;10050722;28;20508;-65
2022/01/01 19:14:41;;;;;;;14.40;7.82;;;10.40;95.10;;;;;;10047236;28;20045;-64
2022/01/01 19:19:34;;;;;;;18.05;8.52;;;10.40;95.20;;;;;;10031658;28;20029;-65
2022/01/01 19:24:25;;;;;;;10.80;6.43;;;10.40;95.20;;;;;;10051177;28;20345;-65
2022/01/01 19:29:16;;;;;;;13.98;7.60;;;10.40;95.30;;;;;;10047323;28;20025;-66
2022/01/01 19:34:08;;;;;;;12.60;7.03;;;10.40;95.20;;;;;;10050661;28;20041;-65
2022/01/01 19:39:03;;;;;;;11.77;7.07;;;10.30;95.30;;;;;;10044865;28;20377;-68
2022/01/01 19:44:25;;;;;;;14.95;6.68;;;10.40;95.30;;;;;;10051196;28;20033;-67
2022/01/01 19:49:17;;;;;;;12.23;6.35;;;10.20;95.40;;;;;;10049444;28;20025;-68
2022/01/01 19:54:08;;;;;;;17.17;9.38;;;10.20;95.50;;;;;;10030529;28;20037;-67
2022/01/01 19:59:00;;;;;;;16.25;7.40;;;10.20;95.50;;;;;;10048751;28;20045;-68
2022/01/01 20:03:50;;;;;;;16.95;8.65;;;10.10;95.60;;;;;;10057700;28;20533;-66
2022/01/01 20:08:41;;;;;;;14.32;7.40;;;10.00;95.70;;;;;;10058697;28;20105;-67
2022/01/01 20:13:32;;;;;;;14.75;7.25;;;10.00;95.70;;;;;;10059378;28;20044;-69
2022/01/01 20:18:24;;;;;;;13.02;7.30;;;10.00;95.70;;;;;;10055444;28;20105;-67
2022/01/01 20:23:14;;;;;;;13.30;7.50;;;10.00;95.70;;;;;;10054968;28;20053;-66
2022/01/01 20:28:05;;;;;;;15.52;8.43;;;9.90;95.80;;;;;;10052377;28;20403;-65
2022/01/01 20:32:56;;;;;;;14.48;9.25;;;9.80;95.90;;;;;;10053156;28;20456;-65
2022/01/01 20:37:47;;;;;;;19.80;10.23;;;9.70;96.00;;;;;;10051569;28;20078;-68
2022/01/01 20:42:38;;;;;;;20.05;10.35;;;9.60;96.20;;;;;;10052071;28;20546;-67
2022/01/01 20:47:29;;;;;;;23.63;11.75;;;9.60;96.30;;;;;;10036770;28;20025;-65
2022/01/01 20:52:19;;;;;;;15.77;9.80;;;9.60;96.30;;;;;;10054431;28;20419;-65
2022/01/01 20:57:10;;;;;;;16.33;9.65;;;9.60;96.20;;;;;;10054204;28;20119;-65
2022/01/01 21:02:18;;;;;;;15.32;9.20;;;9.60;96.10;;;;;;10051678;28;20026;-69
2022/01/01 21:07:11;;;;;;;15.77;9.50;;;9.60;96.10;;;;;;10054808;28;20028;-68
2022/01/01 21:12:06;;;;;;;19.20;9.73;;;9.60;96.00;;;;;;10055678;28;20033;-69
2022/01/01 21:16:57;;;;;;;19.08;9.85;;;9.60;96.10;;;;;;10051450;28;20080;-68
2022/01/01 21:21:50;;;;;;;19.95;9.38;;;9.50;96.10;;;;;;10051049;28;20551;-67
2022/01/01 21:26:41;;;;;;;20.15;10.68;;;9.40;96.30;;;;;;10047778;28;20021;-70
2022/01/01 21:31:31;;;;;;;19.95;10.55;;;9.50;96.20;;;;;;10054205;28;20033;-68
2022/01/01 21:36:22;;;;;;;19.42;11.00;;;9.40;96.20;;;;;;10051162;28;20077;-67
2022/01/01 21:41:13;;;;;;;20.33;10.98;;;9.40;96.30;;;;;;10052273;28;20083;-68
2022/01/01 21:46:04;;;;;;;16.95;9.65;;;9.40;96.20;;;;;;10050432;28;20034;-66
2022/01/01 21:50:54;;;;;;;15.32;8.88;;;9.40;96.30;;;;;;10050712;28;20029;-67
2022/01/01 21:55:48;;;;;;;15.85;9.80;;;9.30;96.40;;;;;;10051035;28;20273;-68
2022/01/01 22:00:42;;;;;;;20.13;10.65;;;9.30;96.50;;;;;;10049537;28;20029;-67
2022/01/01 22:05:33;;;;;;;19.85;10.35;;;9.30;96.50;;;;;;10049027;28;20503;-66
2022/01/01 22:10:24;;;;;;;15.57;8.38;;;9.30;96.50;;;;;;10052803;28;20037;-65
2022/01/01 22:15:15;;;;;;;15.63;8.23;;;9.20;96.50;;;;;;10055045;28;20375;-65
2022/01/01 22:20:06;;;;;;;17.48;8.65;;;9.20;96.70;;;;;;10067947;28;20025;-67
2022/01/01 22:24:57;;;;;;;12.75;7.18;;;9.20;96.60;;;;;;10060614;28;20049;-65
2022/01/01 22:29:48;;;;;;;11.23;6.57;;;9.20;96.60;;;;;;10053961;28;20025;-65
2022/01/01 22:34:39;;;;;;;11.02;7.43;;;9.20;96.50;;;;;;10057947;28;20037;-67
2022/01/01 22:39:30;;;;;;;11.93;7.00;;;9.20;96.70;;;;;;10046382;28;20503;-66
2022/01/01 22:44:21;;;;;;;10.82;6.85;;;9.20;96.80;;;;;;10050352;28;20112;-66
2022/01/01 22:49:11;;;;;;;10.75;6.25;;;9.20;96.70;;;;;;10045620;28;20032;-65
2022/01/01 22:54:04;;;;;;;11.57;6.05;;;9.10;96.70;;;;;;10050368;28;20048;-64
2022/01/01 22:58:55;;;;;;;11.18;5.85;;;9.10;96.60;;;;;;10033198;28;20041;-65
2022/01/01 23:03:46;;;;;;;11.68;6.78;;;9.00;96.70;;;;;;10052432;28;20248;-63
2022/01/01 23:08:38;;;;;;;15.75;7.82;;;8.90;96.90;;;;;;10032141;28;20330;-65
2022/01/01 23:13:30;;;;;;;14.48;7.55;;;8.90;96.80;;;;;;10049995;28;20037;-64
2022/01/01 23:18:53;;;;;;;12.10;6.55;;;8.80;96.90;;;;;;10047480;28;20030;-67
2022/01/01 23:23:37;;;;;;;9.30;5.95;;;8.80;96.80;;;;;;10044987;28;20079;-67
2022/01/01 23:28:32;;;;;;;9.60;7.45;;;8.70;97.00;;;;;;10049242;28;20025;-68
2022/01/01 23:33:29;;;;;;;14.38;7.40;;;8.70;96.90;;;;;;10046293;28;20044;-69
2022/01/01 23:38:23;;;;;;;12.30;7.00;;;8.80;96.80;;;;;;10043937;28;20041;-71
2022/01/01 23:43:15;;;;;;;11.18;5.97;;;8.70;96.90;;;;;;10046234;28;20234;-66
2022/01/01 23:48:08;;;;;;;14.00;7.20;;;8.80;96.80;;;;;;10047122;28;20033;-63
2022/01/01 23:53:02;;;;;;;8.48;5.55;;;8.80;96.70;;;;;;10047655;28;20030;-65
2022/01/01 23:58:02;;;;;;;13.32;6.38;;;8.80;96.80;;;;;;10027195;28;20049;-66
